Time;durP1;ratioP1;P1;durP2;ratioP2;P2;SDS_P1;SDS_P2;PMS_P1;PMS_P2;Temp;Humidity;BMP_temperature;BMP_pressure;BME280_temperature;BME280_humidity;BME280_pressure;Samples;Min_cycle;Max_cycle;Signal;HPM_P1;HPM_P2
2023/12/11 00:00:31;;;;;;;15.97;5.03;;;10.70;99.90;;;;;;5052090;28;20336;-70
2023/12/11 00:02:58;;;;;;;15.57;5.73;;;10.70;99.90;;;;;;5051862;28;20194;-71
2023/12/11 00:05:23;;;;;;;15.70;5.40;;;10.60;1.00;;;;;;5051693;28;20285;-70
2023/12/11 00:07:49;;;;;;;16.20;5.30;;;10.60;1.00;;;;;;5051206;28;20619;-70
2023/12/11 00:10:15;;;;;;;16.73;6.47;;;10.60;1.00;;;;;;5051122;28;20229;-70
2023/12/11 00:12:40;;;;;;;16.53;5.27;;;10.60;1.00;;;;;;5051194;28;20213;-70
2023/12/11 00:15:06;;;;;;;15.13;5.83;;;10.70;1.00;;;;;;5051291;28;20599;-70
2023/12/11 00:17:32;;;;;;;15.73;6.40;;;10.80;1.00;;;;;;5031533;28;20593;-69
2023/12/11 00:19:58;;;;;;;19.20;6.20;;;10.90;99.90;;;;;;5031206;28;20219;-70
2023/12/11 00:22:24;;;;;;;19.07;5.90;;;10.90;1.00;;;;;;5031129;28;20175;-70
2023/12/11 00:24:50;;;;;;;13.50;5.10;;;11.00;99.90;;;;;;5030795;28;20601;-70
2023/12/11 00:27:16;;;;;;;25.70;6.83;;;11.00;99.90;;;;;;5031385;28;20266;-70
2023/12/11 00:29:41;;;;;;;20.17;5.70;;;11.00;1.00;;;;;;5031337;28;20183;-70
2023/12/11 00:32:07;;;;;;;19.00;5.43;;;10.90;1.00;;;;;;5049540;28;20217;-70
2023/12/11 00:34:33;;;;;;;15.93;5.20;;;10.90;99.90;;;;;;5033221;28;20171;-69
2023/12/11 00:36:58;;;;;;;20.97;5.97;;;10.80;1.00;;;;;;5051495;28;20262;-70
2023/12/11 00:39:24;;;;;;;11.63;4.93;;;10.80;99.90;;;;;;5055015;28;20175;-70
2023/12/11 00:41:50;;;;;;;16.43;5.90;;;10.90;1.00;;;;;;5054435;28;20244;-70
2023/12/11 00:44:15;;;;;;;26.53;5.73;;;10.90;99.90;;;;;;5054880;28;20187;-71
2023/12/11 00:46:41;;;;;;;13.77;5.73;;;10.80;99.90;;;;;;5054483;28;20241;-70
2023/12/11 00:49:07;;;;;;;16.27;6.57;;;10.80;99.90;;;;;;5054569;28;20538;-70
2023/12/11 00:51:33;;;;;;;19.27;5.97;;;10.80;1.00;;;;;;5054764;28;20195;-71
2023/12/11 00:53:58;;;;;;;20.00;6.03;;;10.80;99.90;;;;;;5054319;28;20206;-68
2023/12/11 00:56:24;;;;;;;15.53;5.37;;;10.80;94.00;;;;;;5054406;28;20175;-68
2023/12/11 00:58:50;;;;;;;14.07;5.67;;;10.80;1.00;;;;;;5054017;28;20182;-71
2023/12/11 01:01:15;;;;;;;13.33;6.27;;;10.90;1.00;;;;;;5054245;28;20274;-69
2023/12/11 01:03:41;;;;;;;17.77;6.43;;;10.80;1.00;;;;;;5054129;28;20183;-69
2023/12/11 01:06:07;;;;;;;20.83;7.03;;;10.90;1.00;;;;;;5036244;28;20206;-71
2023/12/11 01:08:38;;;;;;;16.73;6.07;;;11.00;1.00;;;;;;5036205;28;20186;-69
2023/12/11 01:11:04;;;;;;;18.50;5.87;;;10.80;1.00;;;;;;5054063;28;20279;-70
2023/12/11 01:13:29;;;;;;;18.60;6.33;;;10.90;1.00;;;;;;5054100;28;20549;-70
2023/12/11 01:15:55;;;;;;;15.13;5.50;;;10.90;1.00;;;;;;5054249;28;20286;-68
2023/12/11 01:18:20;;;;;;;15.70;5.70;;;10.90;1.00;;;;;;5054353;28;20182;-68
2023/12/11 01:20:46;;;;;;;13.63;5.77;;;10.90;1.00;;;;;;5053792;28;20580;-70
2023/12/11 01:23:11;;;;;;;17.67;5.57;;;10.90;99.90;;;;;;5053632;28;20634;-69
2023/12/11 01:25:37;;;;;;;17.97;5.80;;;10.80;99.90;;;;;;5054116;28;20205;-70
2023/12/11 01:28:03;;;;;;;16.07;6.40;;;10.90;1.00;;;;;;5053640;28;20183;-69
2023/12/11 01:30:28;;;;;;;18.93;5.70;;;10.90;1.00;;;;;;5053715;28;20218;-69
2023/12/11 01:32:54;;;;;;;13.90;5.13;;;10.90;99.90;;;;;;5053777;28;20171;-69
2023/12/11 01:35:19;;;;;;;17.80;5.60;;;11.00;55.50;;;;;;5053668;28;20269;-69
2023/12/11 01:37:45;;;;;;;22.87;5.40;;;11.00;1.00;;;;;;5053638;28;20189;-70
2023/12/11 01:40:11;;;;;;;16.73;5.57;;;11.00;99.90;;;;;;5053432;28;20199;-70
2023/12/11 01:42:37;;;;;;;15.73;5.60;;;11.00;1.00;;;;;;5053305;28;20228;-70
2023/12/11 01:45:03;;;;;;;17.60;6.10;;;10.90;1.00;;;;;;5053132;28;20187;-69
2023/12/11 01:47:28;;;;;;;18.17;5.57;;;10.90;1.00;;;;;;5053475;28;20171;-69
2023/12/11 01:49:54;;;;;;;17.23;5.77;;;11.00;1.00;;;;;;5052591;28;20584;-69
2023/12/11 01:52:20;;;;;;;13.50;5.50;;;11.00;1.00;;;;;;5053169;28;20170;-69
2023/12/11 01:54:45;;;;;;;22.40;5.73;;;11.00;1.00;;;;;;5035200;28;20178;-69
2023/12/11 01:57:12;;;;;;;16.10;5.63;;;11.00;1.00;;;;;;5053641;28;20187;-69
2023/12/11 01:59:39;;;;;;;19.47;5.80;;;11.00;1.00;;;;;;5054128;28;20747;-68
2023/12/11 02:02:04;;;;;;;25.27;6.07;;;11.10;1.00;;;;;;5053690;28;20627;-70
2023/12/11 02:04:30;;;;;;;19.63;5.90;;;11.10;1.00;;;;;;5053819;28;20253;-70
2023/12/11 02:06:57;;;;;;;21.93;5.87;;;11.20;1.00;;;;;;5053810;28;20207;-70
2023/12/11 02:09:23;;;;;;;15.97;5.00;;;11.20;1.00;;;;;;5053147;28;20177;-69
2023/12/11 02:11:48;;;;;;;15.87;5.77;;;11.30;1.00;;;;;;5052782;28;20222;-70
2023/12/11 02:14:14;;;;;;;15.00;5.77;;;11.30;1.00;;;;;;5053583;28;20657;-69
2023/12/11 02:16:39;;;;;;;22.37;5.87;;;11.30;1.00;;;;;;5052880;28;20171;-69
2023/12/11 02:19:06;;;;;;;11.63;5.03;;;11.30;1.00;;;;;;5053215;28;20175;-69
2023/12/11 02:21:32;;;;;;;12.53;4.60;;;11.30;99.90;;;;;;5052705;28;20195;-68
2023/12/11 02:24:00;;;;;;;13.17;5.20;;;11.30;1.00;;;;;;5052590;28;20194;-69
2023/12/11 02:26:26;;;;;;;19.27;5.47;;;11.30;99.90;;;;;;5052725;28;20194;-71
2023/12/11 02:28:52;;;;;;;19.03;4.93;;;11.20;99.90;;;;;;5052646;28;20179;-68
2023/12/11 02:31:17;;;;;;;18.37;6.03;;;11.20;99.90;;;;;;5052403;28;20225;-68
2023/12/11 02:33:43;;;;;;;21.33;6.23;;;11.20;99.90;;;;;;5052170;28;20171;-68
2023/12/11 02:36:09;;;;;;;20.50;4.93;;;11.10;99.90;;;;;;5052212;28;20187;-68
2023/12/11 02:38:34;;;;;;;11.87;4.60;;;11.10;99.90;;;;;;5052302;28;20320;-68
2023/12/11 02:41:00;;;;;;;19.40;5.30;;;11.10;99.90;;;;;;5052227;28;20259;-68
2023/12/11 02:43:26;;;;;;;11.90;4.63;;;11.10;99.90;;;;;;5052105;28;20618;-69
2023/12/11 02:45:51;;;;;;;12.07;5.57;;;11.10;99.90;;;;;;5051984;28;20626;-70
2023/12/11 02:48:18;;;;;;;16.67;5.20;;;11.10;99.90;;;;;;5052087;28;20224;-69
2023/12/11 02:50:44;;;;;;;18.77;5.97;;;11.10;99.90;;;;;;5051953;28;20204;-68
2023/12/11 02:53:09;;;;;;;18.73;5.57;;;11.00;99.90;;;;;;5034018;28;20576;-69
2023/12/11 02:55:35;;;;;;;16.77;5.07;;;10.90;99.90;;;;;;5052325;28;20197;-68
2023/12/11 02:58:02;;;;;;;16.90;5.23;;;10.90;99.90;;;;;;5052326;28;20221;-67
2023/12/11 03:00:29;;;;;;;13.47;5.20;;;10.80;99.90;;;;;;5051875;28;20194;-69
2023/12/11 03:02:56;;;;;;;13.10;4.67;;;10.90;1.00;;;;;;5033455;28;20194;-68
2023/12/11 03:05:22;;;;;;;17.63;5.10;;;11.00;99.90;;;;;;5051868;28;20256;-68
2023/12/11 03:07:48;;;;;;;16.10;5.60;;;11.10;99.90;;;;;;5051837;28;20574;-68
2023/12/11 03:10:13;;;;;;;17.33;5.00;;;11.20;30.00;;;;;;5051844;28;20209;-70
2023/12/11 03:12:39;;;;;;;18.63;5.17;;;11.30;69.00;;;;;;5052648;28;20167;-70
2023/12/11 03:15:07;;;;;;;19.07;5.20;;;11.30;99.90;;;;;;5052110;28;20596;-69
2023/12/11 03:17:32;;;;;;;13.53;4.93;;;11.40;99.60;;;;;;5051762;28;20179;-69
2023/12/11 03:20:01;;;;;;;12.77;5.03;;;11.40;1.00;;;;;;5051441;28;20688;-70
2023/12/11 03:22:27;;;;;;;15.77;5.73;;;11.30;1.00;;;;;;5051726;28;20173;-70
2023/12/11 03:24:54;;;;;;;13.90;4.90;;;11.20;1.00;;;;;;5051784;28;20206;-69
2023/12/11 03:27:22;;;;;;;12.33;4.73;;;11.20;1.00;;;;;;5051640;28;20202;-69
2023/12/11 03:29:49;;;;;;;14.77;5.00;;;11.20;1.00;;;;;;5051048;28;20183;-69
2023/12/11 03:32:15;;;;;;;19.67;5.83;;;11.20;1.00;;;;;;5051563;28;20261;-69
2023/12/11 03:34:41;;;;;;;20.20;6.27;;;11.30;1.00;;;;;;5051679;28;20262;-70
2023/12/11 03:37:07;;;;;;;12.33;4.80;;;11.20;1.00;;;;;;5051988;28;20232;-69
2023/12/11 03:39:32;;;;;;;14.03;4.53;;;11.20;38.30;;;;;;5052228;28;20179;-69
2023/12/11 03:41:58;;;;;;;24.13;5.37;;;11.10;1.00;;;;;;5051665;28;20281;-69
2023/12/11 03:44:24;;;;;;;17.53;5.30;;;11.10;1.00;;;;;;5051710;28;20630;-70
2023/12/11 03:46:49;;;;;;;22.53;5.20;;;11.00;62.70;;;;;;5051532;28;20225;-70
2023/12/11 03:49:16;;;;;;;14.63;4.90;;;11.00;99.90;;;;;;5051696;28;20638;-69
2023/12/11 03:51:45;;;;;;;17.80;5.30;;;11.00;99.10;;;;;;5051529;28;20232;-69
2023/12/11 03:54:10;;;;;;;13.90;4.57;;;11.00;99.90;;;;;;5051999;28;20224;-68
2023/12/11 03:56:38;;;;;;;17.60;5.17;;;11.00;99.90;;;;;;5051184;28;20201;-69
2023/12/11 03:59:04;;;;;;;15.17;5.63;;;11.00;99.90;;;;;;5051445;28;20171;-70
2023/12/11 04:01:29;;;;;;;15.33;5.50;;;11.10;99.90;;;;;;5051334;28;20554;-70
2023/12/11 04:03:55;;;;;;;9.13;4.73;;;11.20;99.90;;;;;;5051168;28;20249;-69
2023/12/11 04:06:21;;;;;;;13.17;4.43;;;11.20;99.90;;;;;;5050989;28;20205;-70
2023/12/11 04:08:46;;;;;;;15.67;5.60;;;11.20;99.90;;;;;;5050541;28;20280;-68
2023/12/11 04:11:12;;;;;;;12.33;4.97;;;11.20;1.00;;;;;;5032808;28;20202;-70
2023/12/11 04:13:38;;;;;;;13.63;4.70;;;11.20;99.90;;;;;;5057337;28;20209;-69
2023/12/11 04:16:04;;;;;;;11.60;5.60;;;11.20;89.20;;;;;;5057846;28;20541;-69
2023/12/11 04:18:33;;;;;;;9.23;4.70;;;11.10;1.00;;;;;;5057974;28;20244;-70
2023/12/11 04:20:59;;;;;;;13.73;5.00;;;11.10;99.90;;;;;;5057857;28;20607;-70
2023/12/11 04:23:24;;;;;;;13.07;5.37;;;11.00;93.90;;;;;;5057751;28;20253;-70
2023/12/11 04:25:51;;;;;;;17.33;5.30;;;11.00;1.00;;;;;;5058157;28;20277;-69
2023/12/11 04:28:17;;;;;;;10.63;4.37;;;11.00;4.40;;;;;;5058130;28;20225;-71
2023/12/11 04:30:43;;;;;;;10.83;4.30;;;10.90;22.30;;;;;;5057946;28;20661;-69
2023/12/11 04:33:08;;;;;;;10.70;4.93;;;10.90;99.90;;;;;;5058003;28;20170;-68
2023/12/11 04:35:34;;;;;;;14.47;5.20;;;10.90;99.90;;;;;;5058080;28;20229;-68
2023/12/11 04:38:00;;;;;;;16.50;5.20;;;11.00;46.80;;;;;;5057495;28;20550;-68
2023/12/11 04:40:27;;;;;;;13.43;4.90;;;11.00;99.90;;;;;;5058600;28;20198;-68
2023/12/11 04:42:52;;;;;;;13.30;4.53;;;11.10;99.90;;;;;;5057886;28;20593;-69
2023/12/11 04:45:18;;;;;;;15.63;4.10;;;11.20;99.90;;;;;;5038939;28;20209;-70
2023/12/11 04:47:43;;;;;;;6.83;3.77;;;11.20;48.30;;;;;;5057068;28;20175;-69
2023/12/11 04:50:09;;;;;;;12.87;4.40;;;11.30;36.80;;;;;;5057469;28;20780;-68
2023/12/11 04:52:35;;;;;;;15.33;5.40;;;11.30;99.90;;;;;;5057107;28;20231;-68
2023/12/11 04:55:00;;;;;;;16.37;4.80;;;11.20;99.90;;;;;;5057202;28;20174;-68
2023/12/11 04:57:26;;;;;;;10.93;4.40;;;11.10;1.00;;;;;;5057323;28;20237;-69
2023/12/11 04:59:51;;;;;;;11.60;4.77;;;10.90;1.00;;;;;;5056938;28;20167;-70
2023/12/11 05:02:17;;;;;;;11.17;4.97;;;10.80;1.00;;;;;;5057084;28;20171;-69
2023/12/11 05:04:43;;;;;;;10.83;4.43;;;10.60;1.00;;;;;;5056931;28;20262;-70
2023/12/11 05:07:08;;;;;;;18.27;5.10;;;10.50;99.90;;;;;;5056669;28;20205;-70
2023/12/11 05:09:34;;;;;;;18.37;4.87;;;10.30;99.90;;;;;;5039840;28;20225;-72
2023/12/11 05:11:59;;;;;;;15.37;4.83;;;10.20;1.00;;;;;;5057702;28;20205;-68
2023/12/11 05:14:25;;;;;;;10.80;4.33;;;10.10;1.00;;;;;;5057669;28;20246;-70
2023/12/11 05:16:51;;;;;;;12.03;5.53;;;10.10;1.00;;;;;;5056941;28;20174;-70
2023/12/11 05:19:16;;;;;;;15.57;5.00;;;10.00;39.20;;;;;;5057158;28;20261;-69
2023/12/11 05:21:46;;;;;;;15.40;6.07;;;9.90;99.90;;;;;;5056824;28;20266;-70
2023/12/11 05:24:11;;;;;;;21.13;5.87;;;9.80;99.90;;;;;;5054003;28;20628;-69
2023/12/11 05:26:37;;;;;;;16.37;5.93;;;9.80;99.90;;;;;;5054173;28;20202;-70
2023/12/11 05:29:04;;;;;;;12.23;5.20;;;9.80;99.90;;;;;;5053924;28;20179;-70
2023/12/11 05:31:30;;;;;;;14.83;5.30;;;9.70;99.90;;;;;;5053968;28;20550;-71
2023/12/11 05:33:56;;;;;;;11.53;6.00;;;9.70;99.90;;;;;;5053338;28;20178;-71
2023/12/11 05:36:22;;;;;;;10.90;5.30;;;9.60;99.90;;;;;;5053873;28;20176;-71
2023/12/11 05:38:47;;;;;;;18.13;5.17;;;9.60;99.90;;;;;;5053707;28;20183;-70
2023/12/11 05:41:13;;;;;;;18.17;5.30;;;9.50;99.90;;;;;;5053555;28;20198;-72
2023/12/11 05:43:39;;;;;;;20.10;5.63;;;9.50;99.90;;;;;;5053544;28;20257;-71
2023/12/11 05:46:06;;;;;;;13.53;6.20;;;9.40;99.90;;;;;;5053537;28;20209;-71
2023/12/11 05:48:31;;;;;;;16.70;5.40;;;9.50;99.90;;;;;;5053388;28;20182;-72
2023/12/11 05:50:57;;;;;;;16.40;5.10;;;9.40;99.90;;;;;;5053164;28;20198;-73
2023/12/11 05:53:22;;;;;;;15.30;5.10;;;9.40;99.90;;;;;;5053638;28;20182;-73
2023/12/11 05:55:48;;;;;;;9.30;4.87;;;9.30;99.90;;;;;;5053360;28;20175;-72
2023/12/11 05:58:14;;;;;;;10.80;4.90;;;9.30;99.90;;;;;;5053440;28;20177;-71
2023/12/11 06:00:40;;;;;;;14.07;5.13;;;9.20;99.90;;;;;;5053132;28;20194;-73
2023/12/11 06:03:05;;;;;;;14.80;4.80;;;9.20;99.90;;;;;;5052720;28;20185;-72
2023/12/11 06:05:31;;;;;;;17.60;6.13;;;9.10;99.90;;;;;;5053157;28;20670;-71
2023/12/11 06:07:56;;;;;;;13.80;5.77;;;9.00;99.90;;;;;;5053433;28;20178;-71
2023/12/11 06:10:22;;;;;;;22.17;6.73;;;9.00;99.90;;;;;;5053010;28;20732;-71
2023/12/11 06:12:47;;;;;;;11.47;5.80;;;9.00;99.90;;;;;;5052759;28;20170;-72
2023/12/11 06:15:13;;;;;;;20.93;6.50;;;9.00;99.90;;;;;;5053046;28;20167;-70
2023/12/11 06:17:39;;;;;;;19.47;7.03;;;9.00;99.90;;;;;;5052631;28;20243;-70
2023/12/11 06:20:05;;;;;;;17.13;5.73;;;9.00;99.90;;;;;;5052843;28;20198;-70
2023/12/11 06:22:30;;;;;;;17.47;5.53;;;9.00;99.90;;;;;;5052646;28;20171;-71
2023/12/11 06:24:56;;;;;;;16.13;6.07;;;9.00;99.90;;;;;;5052702;28;20178;-72
2023/12/11 06:27:24;;;;;;;15.50;5.00;;;8.90;99.90;;;;;;5052766;28;20285;-71
2023/12/11 06:29:50;;;;;;;20.53;6.03;;;8.90;99.90;;;;;;5052329;28;20253;-71
2023/12/11 06:32:15;;;;;;;17.60;5.70;;;8.90;99.90;;;;;;5052326;28;20262;-71
2023/12/11 06:34:41;;;;;;;12.73;6.07;;;8.90;99.90;;;;;;5034404;28;20179;-71
2023/12/11 06:37:07;;;;;;;20.27;5.67;;;9.00;99.90;;;;;;5052291;28;20622;-71
2023/12/11 06:39:32;;;;;;;14.50;5.63;;;9.00;99.90;;;;;;5052116;28;20183;-71
2023/12/11 06:41:58;;;;;;;17.63;6.20;;;9.00;99.90;;;;;;5052185;28;20197;-71
2023/12/11 06:44:23;;;;;;;12.53;5.43;;;9.00;99.90;;;;;;5052283;28;20703;-71
2023/12/11 06:46:49;;;;;;;15.70;5.70;;;9.00;99.90;;;;;;5052248;28;20285;-69
2023/12/11 06:49:15;;;;;;;14.97;5.33;;;9.00;99.90;;;;;;5052436;28;20177;-71
2023/12/11 06:51:40;;;;;;;13.20;5.50;;;9.10;99.90;;;;;;5052105;28;20696;-70
2023/12/11 06:54:07;;;;;;;11.93;6.13;;;9.10;99.90;;;;;;5034460;28;20167;-72
2023/12/11 06:56:33;;;;;;;17.93;6.30;;;9.10;99.90;;;;;;5034507;28;20179;-70
2023/12/11 06:58:59;;;;;;;20.17;6.37;;;9.00;99.90;;;;;;5052282;28;20296;-71
2023/12/11 07:01:30;;;;;;;17.10;6.20;;;9.10;99.90;;;;;;5051777;28;20248;-70
2023/12/11 07:03:56;;;;;;;11.97;5.67;;;9.30;99.90;;;;;;5052091;28;20581;-71
2023/12/11 07:06:21;;;;;;;14.03;5.83;;;9.20;99.90;;;;;;5052033;28;20205;-71
2023/12/11 07:08:47;;;;;;;11.57;5.50;;;9.10;99.90;;;;;;5051946;28;20171;-70
2023/12/11 07:11:13;;;;;;;16.23;5.43;;;9.10;99.90;;;;;;5051863;28;20798;-71
2023/12/11 07:13:42;;;;;;;11.43;6.03;;;9.20;99.90;;;;;;5033641;28;20213;-71
2023/12/11 07:16:08;;;;;;;22.67;6.33;;;9.30;99.90;;;;;;5051521;28;20716;-70
2023/12/11 07:18:34;;;;;;;11.63;6.53;;;9.40;99.90;;;;;;5051838;28;20171;-70
2023/12/11 07:20:59;;;;;;;16.43;5.63;;;9.70;99.90;;;;;;5033550;28;20205;-68
2023/12/11 07:23:25;;;;;;;12.57;5.80;;;9.90;99.90;;;;;;5050458;28;20548;-70
2023/12/11 07:25:50;;;;;;;13.67;5.00;;;10.10;99.90;;;;;;5033340;28;20190;-71
2023/12/11 07:28:16;;;;;;;12.00;5.53;;;10.30;99.90;;;;;;5051514;28;20754;-71
2023/12/11 07:30:42;;;;;;;12.63;4.90;;;10.40;99.90;;;;;;5051370;28;20237;-68
2023/12/11 07:33:08;;;;;;;10.77;4.60;;;10.40;99.90;;;;;;5051080;28;20250;-70
2023/12/11 07:35:35;;;;;;;12.33;5.20;;;10.50;99.90;;;;;;5051284;28;20637;-71
2023/12/11 07:38:02;;;;;;;10.57;5.07;;;10.60;99.90;;;;;;5051369;28;20740;-70
2023/12/11 07:40:28;;;;;;;19.03;5.97;;;10.60;99.90;;;;;;5051045;28;20742;-70
2023/12/11 07:42:54;;;;;;;11.57;5.00;;;10.70;99.90;;;;;;5050383;28;20178;-70
2023/12/11 07:45:22;;;;;;;8.73;4.50;;;10.70;99.90;;;;;;5051340;28;20254;-71
2023/12/11 07:47:48;;;;;;;17.70;5.50;;;10.80;99.90;;;;;;5050316;28;20179;-70
2023/12/11 07:50:14;;;;;;;11.37;4.77;;;10.80;1.00;;;;;;5051303;28;20650;-71
2023/12/11 07:52:41;;;;;;;16.03;4.80;;;10.80;1.00;;;;;;5051138;28;20174;-70
2023/12/11 07:55:07;;;;;;;16.67;5.27;;;10.90;99.90;;;;;;5050710;28;20170;-70
2023/12/11 07:57:32;;;;;;;14.43;5.73;;;10.80;99.90;;;;;;5050948;28;20175;-69
2023/12/11 07:59:58;;;;;;;16.10;5.83;;;10.90;99.90;;;;;;5050770;28;20187;-69
2023/12/11 08:02:24;;;;;;;11.67;5.07;;;10.90;1.00;;;;;;5032921;28;20178;-69
2023/12/11 08:04:49;;;;;;;13.30;5.20;;;10.90;99.90;;;;;;5050704;28;20626;-70
2023/12/11 08:07:16;;;;;;;10.50;5.70;;;10.90;99.90;;;;;;5050818;28;20619;-69
2023/12/11 08:09:41;;;;;;;17.40;5.87;;;10.90;99.90;;;;;;5050707;28;20193;-70
2023/12/11 08:12:07;;;;;;;14.67;5.20;;;10.90;39.10;;;;;;5050265;28;20190;-69
2023/12/11 08:14:33;;;;;;;12.63;5.27;;;11.00;1.00;;;;;;5050853;28;20166;-69
2023/12/11 08:16:59;;;;;;;14.07;4.50;;;11.00;1.00;;;;;;5050832;28;20175;-69
2023/12/11 08:19:25;;;;;;;16.33;5.93;;;11.00;99.90;;;;;;5050837;28;20630;-69
2023/12/11 08:21:51;;;;;;;14.23;5.17;;;11.10;99.90;;;;;;5050413;28;20191;-69
2023/12/11 08:24:16;;;;;;;13.47;6.70;;;11.10;99.90;;;;;;5051100;28;20542;-70
2023/12/11 08:26:43;;;;;;;17.97;5.93;;;11.20;99.90;;;;;;5050843;28;20202;-70
2023/12/11 08:29:09;;;;;;;7.67;4.87;;;11.30;99.90;;;;;;5032644;28;20712;-69
2023/12/11 08:31:35;;;;;;;13.80;5.90;;;11.30;99.90;;;;;;5050497;28;20221;-69
2023/12/11 08:34:01;;;;;;;7.53;4.60;;;11.30;92.80;;;;;;5050292;28;20622;-68
2023/12/11 08:36:26;;;;;;;18.03;5.17;;;11.30;1.00;;;;;;5050717;28;20186;-69
2023/12/11 08:38:52;;;;;;;10.07;5.33;;;11.40;19.50;;;;;;5050545;28;20256;-69
2023/12/11 08:41:17;;;;;;;16.73;5.43;;;11.40;15.80;;;;;;5050679;28;20537;-74
2023/12/11 08:43:43;;;;;;;16.23;6.50;;;11.40;2.50;;;;;;5051059;28;20178;-71
2023/12/11 08:46:09;;;;;;;19.20;5.10;;;11.40;2.10;;;;;;5032650;28;20210;-73
2023/12/11 08:48:35;;;;;;;19.03;5.40;;;11.50;6.60;;;;;;5051113;28;20193;-72
2023/12/11 08:51:00;;;;;;;17.50;5.30;;;11.50;1.00;;;;;;5050303;28;20199;-73
2023/12/11 08:53:26;;;;;;;15.27;4.60;;;11.40;1.00;;;;;;5032613;28;20179;-74
2023/12/11 08:55:53;;;;;;;14.47;4.87;;;11.40;1.00;;;;;;5050495;28;20194;-74
2023/12/11 08:58:19;;;;;;;17.33;5.00;;;11.40;1.00;;;;;;5052580;28;20273;-72
2023/12/11 09:00:45;;;;;;;7.67;4.37;;;11.40;1.00;;;;;;5035215;28;20207;-70
2023/12/11 09:03:10;;;;;;;20.17;4.83;;;11.40;1.00;;;;;;5050798;28;20206;-73
2023/12/11 09:05:36;;;;;;;7.23;4.80;;;11.40;1.00;;;;;;5054631;28;20213;-73
2023/12/11 09:08:02;;;;;;;5.60;5.07;;;11.40;1.00;;;;;;5054174;28;20182;-72
2023/12/11 09:10:28;;;;;;;11.67;5.60;;;11.40;1.00;;;;;;5054144;28;20218;-73
2023/12/11 09:12:54;;;;;;;15.40;5.93;;;11.50;1.00;;;;;;5035570;28;20175;-69
2023/12/11 09:15:20;;;;;;;10.17;5.60;;;11.40;1.00;;;;;;5054040;28;20711;-73
2023/12/11 09:17:46;;;;;;;11.53;5.23;;;11.50;1.00;;;;;;5054088;28;20182;-72
2023/12/11 09:20:11;;;;;;;18.67;5.03;;;11.50;1.00;;;;;;5053891;28;20199;-70
2023/12/11 09:22:40;;;;;;;8.77;7.97;;;11.50;1.00;;;;;;5053959;28;20178;-72
2023/12/11 09:25:06;;;;;;;15.50;4.90;;;11.40;1.00;;;;;;5040071;28;20309;-72
2023/12/11 09:27:31;;;;;;;11.17;4.97;;;11.50;1.00;;;;;;5048089;28;20192;-73
2023/12/11 09:29:57;;;;;;;10.90;5.23;;;11.50;1.00;;;;;;5052519;28;20195;-73
2023/12/11 09:32:23;;;;;;;8.03;5.90;;;11.50;1.00;;;;;;5053378;28;20204;-72
2023/12/11 09:34:48;;;;;;;11.60;9.97;;;11.50;1.00;;;;;;5053853;28;20213;-73
2023/12/11 09:37:15;;;;;;;13.83;5.33;;;11.50;1.00;;;;;;5035706;28;20178;-73
2023/12/11 09:39:41;;;;;;;11.20;4.80;;;11.50;1.00;;;;;;5053336;28;20214;-70
2023/12/11 09:42:08;;;;;;;9.97;5.17;;;11.50;1.00;;;;;;5052619;28;20186;-73
2023/12/11 09:44:34;;;;;;;9.83;5.77;;;11.50;1.00;;;;;;5053696;28;20175;-74
2023/12/11 09:47:34;;;;;;;8.67;4.20;;;11.50;1.00;;;;;;5053175;28;20199;-73
2023/12/11 09:50:00;;;;;;;14.70;5.10;;;11.50;1.00;;;;;;5021194;28;20577;-71
2023/12/11 09:52:27;;;;;;;18.27;4.77;;;11.50;1.00;;;;;;5053408;28;20167;-73
2023/12/11 09:54:53;;;;;;;14.47;5.30;;;11.50;1.00;;;;;;5053482;28;20182;-72
2023/12/11 09:57:19;;;;;;;8.93;4.07;;;11.50;1.00;;;;;;5053542;28;20183;-73
2023/12/11 09:59:49;;;;;;;19.57;4.77;;;11.50;1.00;;;;;;5053323;28;20193;-73
2023/12/11 10:02:15;;;;;;;13.10;4.53;;;11.50;1.00;;;;;;5053121;28;20493;-73
2023/12/11 10:05:00;;;;;;;15.93;5.47;;;11.50;1.00;;;;;;5053640;28;20206;-74
2023/12/11 10:07:26;;;;;;;11.73;4.63;;;11.50;1.00;;;;;;5053199;28;20684;-71
2023/12/11 10:09:51;;;;;;;12.23;4.50;;;11.50;91.50;;;;;;5052216;28;20266;-74
2023/12/11 10:12:17;;;;;;;12.60;5.07;;;11.40;95.70;;;;;;5053404;28;20316;-73
2023/12/11 10:14:45;;;;;;;16.13;5.33;;;11.20;99.90;;;;;;5053084;28;20198;-72
2023/12/11 10:17:16;;;;;;;17.13;4.87;;;11.00;1.00;;;;;;5053260;28;20186;-73
2023/12/11 10:19:41;;;;;;;9.13;4.60;;;10.90;99.90;;;;;;5053308;28;20179;-72
2023/12/11 10:22:07;;;;;;;13.23;4.83;;;10.80;99.90;;;;;;5052901;28;20190;-74
2023/12/11 10:24:41;;;;;;;9.93;4.70;;;10.70;1.00;;;;;;5053171;28;20179;-73
2023/12/11 10:27:06;;;;;;;14.43;5.20;;;10.50;1.00;;;;;;5052750;28;20341;-72
2023/12/11 10:29:32;;;;;;;18.53;5.63;;;10.30;70.50;;;;;;5035008;28;20269;-74
2023/12/11 10:32:03;;;;;;;18.27;5.30;;;10.20;99.90;;;;;;5052831;28;20718;-73
2023/12/11 10:34:42;;;;;;;10.10;4.73;;;9.90;99.90;;;;;;5035181;28;20182;-74
2023/12/11 10:37:09;;;;;;;14.17;6.50;;;9.80;99.90;;;;;;5034792;28;20182;-73
2023/12/11 10:39:34;;;;;;;9.77;5.43;;;9.70;99.90;;;;;;5033519;28;20198;-74
2023/12/11 10:42:13;;;;;;;15.13;5.13;;;9.60;99.90;;;;;;5032934;28;20199;-73
2023/12/11 10:44:40;;;;;;;11.97;5.27;;;9.60;99.90;;;;;;5015234;28;20179;-72
2023/12/11 10:47:07;;;;;;;21.00;6.43;;;9.60;99.90;;;;;;5032763;28;20206;-73
2023/12/11 10:49:33;;;;;;;20.40;5.70;;;9.70;99.90;;;;;;5015630;28;20286;-72
2023/12/11 10:52:02;;;;;;;16.67;5.30;;;9.70;99.90;;;;;;5031913;28;20666;-72
2023/12/11 10:54:28;;;;;;;9.73;5.10;;;9.70;99.90;;;;;;5032460;28;20199;-73
2023/12/11 10:56:56;;;;;;;9.90;5.00;;;9.70;99.90;;;;;;5032117;28;20237;-72
2023/12/11 10:59:22;;;;;;;10.47;5.03;;;9.70;99.90;;;;;;5031993;28;20176;-71
2023/12/11 11:01:49;;;;;;;13.10;5.50;;;9.80;99.90;;;;;;5031772;28;20196;-72
2023/12/11 11:04:18;;;;;;;18.93;5.60;;;9.90;99.90;;;;;;5014377;28;20237;-72
2023/12/11 11:07:03;;;;;;;12.90;5.83;;;10.00;99.90;;;;;;5032007;28;20208;-72
2023/12/11 11:09:52;;;;;;;11.90;4.87;;;10.20;99.90;;;;;;5032007;28;20164;-71
2023/12/11 11:12:34;;;;;;;14.03;4.93;;;10.40;99.90;;;;;;5042557;28;20182;-72
2023/12/11 11:15:00;;;;;;;10.13;4.67;;;10.50;99.90;;;;;;5050562;28;20186;-71
2023/12/11 11:18:00;;;;;;;17.57;5.67;;;10.60;99.90;;;;;;5051462;28;20179;-72
2023/12/11 11:20:30;;;;;;;15.30;5.07;;;10.70;99.90;;;;;;5051557;28;20210;-72
2023/12/11 11:23:16;;;;;;;17.93;5.07;;;10.80;99.90;;;;;;5050310;28;20573;-72
2023/12/11 11:25:51;;;;;;;10.80;4.77;;;10.80;99.90;;;;;;5051201;28;20201;-71
2023/12/11 11:28:35;;;;;;;10.90;4.80;;;10.80;99.90;;;;;;5049408;28;20262;-73
2023/12/11 11:31:01;;;;;;;14.27;5.43;;;10.80;99.90;;;;;;5051400;28;20218;-72
2023/12/11 11:33:49;;;;;;;12.77;4.33;;;10.80;99.90;;;;;;5051090;28;20214;-72
2023/12/11 11:36:17;;;;;;;6.80;4.13;;;10.80;99.90;;;;;;5031483;28;20745;-71
2023/12/11 11:38:55;;;;;;;14.47;5.63;;;10.60;99.90;;;;;;5031589;28;20175;-70
2023/12/11 11:41:27;;;;;;;10.67;5.40;;;10.40;99.90;;;;;;5031282;28;20198;-73
2023/12/11 11:43:58;;;;;;;8.70;4.50;;;10.20;99.90;;;;;;5031233;28;20250;-73
2023/12/11 11:46:24;;;;;;;12.50;5.10;;;10.10;99.90;;;;;;5013595;28;20215;-73
2023/12/11 11:48:50;;;;;;;13.90;4.93;;;10.00;99.90;;;;;;5035999;28;20259;-73
2023/12/11 11:51:17;;;;;;;11.43;5.10;;;9.90;99.90;;;;;;5051020;28;20269;-73
2023/12/11 11:53:44;;;;;;;15.00;6.33;;;9.80;99.90;;;;;;5051049;28;20196;-72
2023/12/11 11:56:11;;;;;;;13.80;4.97;;;9.80;99.90;;;;;;5050990;28;20232;-73
2023/12/11 11:58:36;;;;;;;14.57;5.10;;;9.90;99.90;;;;;;5051043;28;20183;-71
2023/12/11 12:01:05;;;;;;;15.33;5.40;;;9.90;99.90;;;;;;5050910;28;20746;-70
2023/12/11 12:03:43;;;;;;;15.33;4.60;;;9.90;99.90;;;;;;5050517;28;20194;-72
2023/12/11 12:06:10;;;;;;;13.83;5.23;;;9.80;99.90;;;;;;5050692;28;20202;-72
2023/12/11 12:08:41;;;;;;;9.87;6.27;;;9.80;99.90;;;;;;5050869;28;20183;-73
2023/12/11 12:11:07;;;;;;;10.07;5.80;;;9.80;99.90;;;;;;5050766;28;20685;-71
2023/12/11 12:13:38;;;;;;;12.87;5.50;;;9.80;99.90;;;;;;5051090;28;20175;-71
2023/12/11 12:16:04;;;;;;;13.97;6.17;;;9.80;99.90;;;;;;5051129;28;20514;-73
2023/12/11 12:18:30;;;;;;;10.60;5.00;;;9.80;99.90;;;;;;5051367;28;20177;-71
2023/12/11 12:21:02;;;;;;;7.37;4.70;;;9.80;99.90;;;;;;5050586;28;20285;-73
2023/12/11 12:23:28;;;;;;;6.57;4.20;;;9.80;99.90;;;;;;5050965;28;20182;-73
2023/12/11 12:25:57;;;;;;;10.90;5.40;;;9.70;99.90;;;;;;5050881;28;20203;-72
2023/12/11 12:28:23;;;;;;;7.80;4.63;;;9.70;99.90;;;;;;5050848;28;20171;-69
2023/12/11 12:30:49;;;;;;;8.63;4.50;;;9.70;99.90;;;;;;5050469;28;20226;-71
2023/12/11 12:33:16;;;;;;;8.70;5.30;;;9.70;99.90;;;;;;5049815;28;20641;-72
2023/12/11 12:35:45;;;;;;;6.60;5.23;;;9.60;99.90;;;;;;5054951;28;20206;-70
2023/12/11 12:38:11;;;;;;;6.50;4.20;;;9.70;99.90;;;;;;5054734;28;20185;-72
2023/12/11 12:40:37;;;;;;;5.63;4.00;;;9.70;99.90;;;;;;5053537;28;20687;-70